createdAt,value
2017-10-20T00:01:55.173Z,27.87
2017-10-20T00:04:26.981Z,21.20
2017-10-20T00:06:57.727Z,19.30
2017-10-20T00:09:28.586Z,20.53
2017-10-20T00:12:01.294Z,23.10
2017-10-20T00:14:31.515Z,19.07
2017-10-20T00:17:01.729Z,20.53
2017-10-20T00:19:32.897Z,20.43
2017-10-20T00:22:03.134Z,23.67
2017-10-20T00:24:34.493Z,19.33
2017-10-20T00:27:04.748Z,19.20
2017-10-20T00:29:34.718Z,21.73
2017-10-20T00:32:05.610Z,20.40
2017-10-20T00:34:35.878Z,22.40
2017-10-20T00:37:05.852Z,22.37
2017-10-20T00:39:39.446Z,16.30
2017-10-20T00:42:10.392Z,17.30
2017-10-20T00:44:40.801Z,15.67
2017-10-20T00:47:12.267Z,17.10
2017-10-20T00:49:44.320Z,16.57
2017-10-20T00:52:15.566Z,20.63
2017-10-20T00:54:46.842Z,16.77
2017-10-20T00:57:17.282Z,20.90
2017-10-20T00:59:47.989Z,19.40
2017-10-20T01:02:18.430Z,17.53
2017-10-20T01:04:49.106Z,20.50
2017-10-20T01:10:58.095Z,26.27
2017-10-20T01:13:28.303Z,29.63
2017-10-20T01:15:58.765Z,29.17
2017-10-20T01:18:29.989Z,22.07
2017-10-20T01:21:01.981Z,23.80
2017-10-20T01:23:33.737Z,21.20
2017-10-20T01:26:05.829Z,22.57
2017-10-20T01:28:37.272Z,26.27
2017-10-20T01:31:08.563Z,18.30
2017-10-20T01:33:39.377Z,24.97
2017-10-20T01:36:10.503Z,21.90
2017-10-20T01:38:41.809Z,17.80
2017-10-20T01:41:12.107Z,16.77
2017-10-20T01:43:42.163Z,20.80
2017-10-20T01:46:13.473Z,22.90
2017-10-20T01:48:43.740Z,22.93
2017-10-20T01:53:54.880Z,19.53
2017-10-20T01:56:26.212Z,19.73
2017-10-20T01:58:56.570Z,18.73
2017-10-20T02:01:26.685Z,19.10
2017-10-20T02:03:57.011Z,18.90
2017-10-20T02:06:28.744Z,23.47
2017-10-20T02:08:59.093Z,17.90
2017-10-20T02:11:30.345Z,21.07
2017-10-20T02:14:03.171Z,17.70
2017-10-20T02:16:33.557Z,14.77
2017-10-20T02:19:03.477Z,19.97
2017-10-20T02:21:33.960Z,18.60
2017-10-20T02:24:04.353Z,18.80
2017-10-20T02:26:34.432Z,20.63
2017-10-20T02:29:04.608Z,16.40
2017-10-20T02:31:35.223Z,14.73
2017-10-20T02:34:05.320Z,14.60
2017-10-20T02:36:37.223Z,14.90
2017-10-20T02:39:08.305Z,22.10
2017-10-20T02:41:42.206Z,21.63
2017-10-20T02:44:14.037Z,18.93
2017-10-20T02:46:44.473Z,21.00
2017-10-20T02:49:14.683Z,20.07
2017-10-20T02:51:45.337Z,14.33
2017-10-20T02:54:15.538Z,17.53
2017-10-20T02:56:45.716Z,12.83
2017-10-20T02:59:15.960Z,17.63
2017-10-20T03:01:47.825Z,18.80
2017-10-20T03:04:19.461Z,22.10
2017-10-20T03:06:51.321Z,14.80
2017-10-20T03:09:22.468Z,25.83
2017-10-20T03:11:52.911Z,18.90
2017-10-20T03:14:24.705Z,22.73
2017-10-20T03:16:54.987Z,19.53
2017-10-20T03:19:25.277Z,21.23
2017-10-20T03:21:57.465Z,21.27
2017-10-20T03:24:27.629Z,16.93
2017-10-20T03:26:57.912Z,20.00
2017-10-20T03:29:29.580Z,21.43
2017-10-20T03:32:00.813Z,18.40
2017-10-20T03:34:30.942Z,22.93
2017-10-20T03:37:01.202Z,18.47
2017-10-20T03:39:53.085Z,20.13
2017-10-20T03:42:23.062Z,20.70
2017-10-20T03:44:55.110Z,20.53
2017-10-20T03:47:26.305Z,15.90
2017-10-20T03:49:56.373Z,15.97
2017-10-20T03:52:29.271Z,22.90
2017-10-20T03:54:59.860Z,18.37
2017-10-20T03:57:30.090Z,25.00
2017-10-20T04:02:33.261Z,22.13
2017-10-20T04:05:03.771Z,23.27
2017-10-20T04:07:34.036Z,16.93
2017-10-20T04:10:04.194Z,18.97
2017-10-20T04:12:35.473Z,16.37
2017-10-20T04:15:06.400Z,19.30
2017-10-20T04:17:36.748Z,20.60
2017-10-20T04:20:08.774Z,21.87
2017-10-20T04:22:39.510Z,21.43
2017-10-20T04:25:11.062Z,18.00
2017-10-20T04:27:41.741Z,22.90
2017-10-20T04:30:12.118Z,24.60
2017-10-20T04:32:43.820Z,20.30
2017-10-20T04:35:15.409Z,23.80
2017-10-20T04:37:49.287Z,23.63
2017-10-20T04:40:23.547Z,20.23
2017-10-20T04:42:55.594Z,23.67
2017-10-20T04:45:28.733Z,18.13
2017-10-20T04:47:59.088Z,19.07
2017-10-20T04:50:29.546Z,17.10
2017-10-20T04:53:00.461Z,19.00
2017-10-20T04:55:31.172Z,23.80
2017-10-20T04:58:01.216Z,18.00
2017-10-20T05:00:32.953Z,16.07
2017-10-20T05:03:05.401Z,26.73
2017-10-20T05:05:35.628Z,19.97
2017-10-20T05:08:05.837Z,16.83
2017-10-20T05:10:36.952Z,17.70
2017-10-20T05:13:09.453Z,21.97
2017-10-20T05:15:39.981Z,20.90
2017-10-20T05:18:11.997Z,21.63
2017-10-20T05:20:42.200Z,24.20
2017-10-20T05:23:13.046Z,19.80
2017-10-20T05:25:43.923Z,18.93
2017-10-20T05:28:14.120Z,17.00
2017-10-20T05:30:44.350Z,22.63
2017-10-20T05:33:16.217Z,18.13
2017-10-20T05:35:47.095Z,17.40
2017-10-20T05:38:18.339Z,17.90
2017-10-20T05:40:48.812Z,19.07
2017-10-20T05:43:21.217Z,23.93
2017-10-20T05:45:51.617Z,17.93
2017-10-20T05:48:21.565Z,15.93
2017-10-20T05:50:52.216Z,16.97
2017-10-20T05:53:22.268Z,17.20
2017-10-20T05:55:52.482Z,12.20
2017-10-20T05:58:23.294Z,17.90
2017-10-20T06:00:54.029Z,13.90
2017-10-20T06:03:24.071Z,15.17
2017-10-20T06:05:54.992Z,14.93
2017-10-20T06:08:24.948Z,12.73
2017-10-20T06:10:56.855Z,12.07
2017-10-20T06:13:27.468Z,16.53
2017-10-20T06:15:57.572Z,14.93
2017-10-20T06:18:29.287Z,25.60
2017-10-20T06:20:59.442Z,19.33
2017-10-20T06:23:30.222Z,14.03
2017-10-20T06:26:02.505Z,16.20
2017-10-20T06:28:33.068Z,28.73
2017-10-20T06:31:03.951Z,14.43
2017-10-20T06:33:33.924Z,21.97
2017-10-20T06:36:04.721Z,18.20
2017-10-20T06:38:35.046Z,17.00
2017-10-20T06:41:05.353Z,19.00
2017-10-20T06:43:36.937Z,17.90
2017-10-20T06:46:07.145Z,15.87
2017-10-20T06:48:38.135Z,17.40
2017-10-20T06:51:08.814Z,14.20
2017-10-20T06:53:38.913Z,18.40
2017-10-20T06:56:13.580Z,21.93
2017-10-20T06:58:44.559Z,17.17
2017-10-20T07:01:14.805Z,19.30
2017-10-20T07:03:45.200Z,20.10
2017-10-20T07:06:15.625Z,22.13
2017-10-20T07:08:46.468Z,16.20
2017-10-20T07:11:19.550Z,18.77
2017-10-20T07:13:50.108Z,16.60
2017-10-20T07:16:21.299Z,18.57
2017-10-20T07:18:52.669Z,17.33
2017-10-20T07:21:23.905Z,20.50
2017-10-20T07:23:56.241Z,16.47
2017-10-20T07:26:26.352Z,15.87
2017-10-20T07:28:56.629Z,18.77
2017-10-20T07:31:27.889Z,21.07
2017-10-20T07:33:58.953Z,19.60
2017-10-20T07:36:32.589Z,34.20
2017-10-20T07:39:02.992Z,17.33
2017-10-20T07:41:33.989Z,19.00
2017-10-20T07:44:08.837Z,24.83
2017-10-20T07:46:40.683Z,22.40
2017-10-20T07:49:16.227Z,18.10
2017-10-20T07:51:46.968Z,16.63
2017-10-20T07:54:17.273Z,17.77
2017-10-20T07:56:52.415Z,18.50
2017-10-20T07:59:23.640Z,16.67
2017-10-20T08:01:54.766Z,18.03
2017-10-20T08:04:25.898Z,16.70
2017-10-20T08:06:59.117Z,18.33
2017-10-20T08:09:30.580Z,15.30
2017-10-20T08:12:02.472Z,19.10
2017-10-20T08:14:34.069Z,19.80
2017-10-20T08:17:06.010Z,21.30
2017-10-20T08:19:37.949Z,18.83
2017-10-20T08:22:10.808Z,17.93
2017-10-20T08:24:47.070Z,18.83
2017-10-20T08:27:20.563Z,18.53
2017-10-20T08:29:51.428Z,23.43
2017-10-20T08:32:21.674Z,20.70
2017-10-20T08:34:52.661Z,19.53
2017-10-20T08:37:24.782Z,24.33
2017-10-20T08:39:54.907Z,21.57
2017-10-20T08:42:25.142Z,19.73
2017-10-20T08:44:55.275Z,22.90
2017-10-20T08:47:27.282Z,21.93
2017-10-20T08:49:58.120Z,21.43
2017-10-20T08:52:29.065Z,22.67
2017-10-20T08:54:59.534Z,24.03
2017-10-20T08:57:29.714Z,23.40
2017-10-20T09:00:00.200Z,21.67
2017-10-20T09:02:31.032Z,23.17
2017-10-20T09:05:03.673Z,22.43
2017-10-20T09:07:33.703Z,20.63
2017-10-20T09:10:06.057Z,30.30
2017-10-20T09:12:40.613Z,22.90
2017-10-20T09:15:12.420Z,22.93
2017-10-20T09:17:43.305Z,22.10
2017-10-20T09:20:17.480Z,19.30
2017-10-20T09:22:49.913Z,27.77
2017-10-20T09:25:20.340Z,18.10
2017-10-20T09:27:51.832Z,24.40
2017-10-20T09:30:29.168Z,24.20
2017-10-20T09:33:04.365Z,29.83
2017-10-20T09:35:36.011Z,20.33
2017-10-20T09:38:07.899Z,19.03
2017-10-20T09:40:38.766Z,18.33
2017-10-20T09:43:14.207Z,20.93
2017-10-20T09:45:44.437Z,22.37
2017-10-20T09:48:17.599Z,25.47
2017-10-20T09:50:48.596Z,25.17
2017-10-20T09:53:20.596Z,32.47
2017-10-20T09:55:52.212Z,22.70
2017-10-20T09:58:24.654Z,23.00
2017-10-20T10:00:58.907Z,24.07
2017-10-20T10:03:36.258Z,22.97
2017-10-20T10:06:08.927Z,25.00
2017-10-20T10:08:39.746Z,22.47
2017-10-20T10:11:12.860Z,29.50
2017-10-20T10:13:44.385Z,32.20
2017-10-20T10:16:14.726Z,26.40
2017-10-20T10:18:44.797Z,24.10
2017-10-20T10:21:14.981Z,31.30
2017-10-20T10:23:45.254Z,27.10
2017-10-20T10:26:15.904Z,28.80
2017-10-20T10:28:48.216Z,24.40
2017-10-20T10:31:18.513Z,26.20
2017-10-20T10:33:50.446Z,27.30
2017-10-20T10:36:21.397Z,29.47
2017-10-20T10:38:52.184Z,23.33
2017-10-20T10:41:22.160Z,25.17
2017-10-20T10:43:52.202Z,30.40
2017-10-20T10:46:22.388Z,35.60
2017-10-20T10:48:53.152Z,25.07
2017-10-20T10:51:23.181Z,24.50
2017-10-20T10:53:55.380Z,28.17
2017-10-20T10:58:47.133Z,25.10
2017-10-20T11:01:17.537Z,29.37
2017-10-20T11:03:47.550Z,22.60
2017-10-20T11:08:30.463Z,23.80
2017-10-20T11:11:11.378Z,19.47
2017-10-20T11:13:41.742Z,18.40
2017-10-20T11:16:12.066Z,15.17
2017-10-20T11:18:43.150Z,20.87
2017-10-20T11:21:14.047Z,16.23
2017-10-20T11:23:44.141Z,16.53
2017-10-20T11:26:18.356Z,15.40
2017-10-20T11:28:48.574Z,15.90
2017-10-20T11:31:19.548Z,14.83
2017-10-20T11:33:50.011Z,14.57
2017-10-20T11:36:20.113Z,15.00
2017-10-20T11:38:51.353Z,14.20
2017-10-20T11:41:21.494Z,15.40
2017-10-20T11:43:53.347Z,11.30
2017-10-20T11:46:27.277Z,12.33
2017-10-20T11:48:57.766Z,9.90
2017-10-20T11:51:30.014Z,11.00
2017-10-20T11:54:07.237Z,12.13
2017-10-20T11:56:38.918Z,10.60
2017-10-20T11:59:10.208Z,13.63
2017-10-20T12:01:42.122Z,8.33
2017-10-20T12:04:16.657Z,8.70
2017-10-20T12:06:49.780Z,14.33
2017-10-20T12:09:21.448Z,9.43
2017-10-20T12:11:55.037Z,9.83
2017-10-20T12:14:26.451Z,11.33
2017-10-20T12:16:57.232Z,10.43
2017-10-20T12:19:28.283Z,11.03
2017-10-20T12:21:58.375Z,8.67
2017-10-20T12:24:29.344Z,11.20
2017-10-20T12:26:59.611Z,7.27
2017-10-20T12:29:30.360Z,7.10
2017-10-20T12:32:00.486Z,6.50
2017-10-20T12:34:34.156Z,13.87
2017-10-20T12:37:04.886Z,7.77
2017-10-20T12:39:36.276Z,9.47
2017-10-20T12:42:09.632Z,5.67
2017-10-20T12:44:41.364Z,5.67
2017-10-20T12:47:11.544Z,8.07
2017-10-20T12:49:42.535Z,4.27
2017-10-20T12:52:12.577Z,5.93
2017-10-20T12:54:43.950Z,5.30
2017-10-20T12:57:14.762Z,5.33
2017-10-20T12:59:44.777Z,4.17
2017-10-20T13:02:15.485Z,10.00
2017-10-20T13:04:45.641Z,5.23
2017-10-20T13:07:19.841Z,3.67
2017-10-20T13:09:49.836Z,4.30
2017-10-20T13:12:21.077Z,4.60
2017-10-20T13:14:51.274Z,4.37
2017-10-20T13:17:21.292Z,4.83
2017-10-20T13:19:51.252Z,4.30
2017-10-20T13:22:22.395Z,5.33
2017-10-20T13:24:52.455Z,6.00
2017-10-20T13:27:24.812Z,5.57
2017-10-20T13:29:57.267Z,6.83
2017-10-20T13:32:27.681Z,4.03
2017-10-20T13:34:58.581Z,7.17
2017-10-20T13:37:28.868Z,4.50
2017-10-20T13:40:00.127Z,4.73
2017-10-20T13:42:30.362Z,5.40
2017-10-20T13:45:01.429Z,4.20
2017-10-20T13:47:31.762Z,6.47
2017-10-20T13:50:02.839Z,6.00
2017-10-20T13:52:33.864Z,3.53
2017-10-20T13:55:06.392Z,4.20
2017-10-20T13:57:39.506Z,5.30
2017-10-20T14:00:12.937Z,14.43
2017-10-20T14:02:47.748Z,6.60
2017-10-20T14:05:20.436Z,4.40
2017-10-20T14:07:53.278Z,2.93
2017-10-20T14:10:24.912Z,5.70
2017-10-20T14:12:56.215Z,6.90
2017-10-20T14:15:26.402Z,4.70
2017-10-20T14:17:58.037Z,4.73
2017-10-20T14:20:32.095Z,5.87
2017-10-20T14:23:05.420Z,4.00
2017-10-20T14:25:36.256Z,9.30
2017-10-20T14:28:07.634Z,3.77
2017-10-20T14:30:39.468Z,3.40
2017-10-20T14:33:22.961Z,4.80
2017-10-20T14:35:54.641Z,7.00
2017-10-20T14:38:26.448Z,10.53
2017-10-20T14:40:56.608Z,4.77
2017-10-20T14:43:28.146Z,2.77
2017-10-20T14:46:00.754Z,2.20
2017-10-20T14:48:36.433Z,4.17
2017-10-20T14:51:08.543Z,4.30
2017-10-20T14:53:43.737Z,4.57
2017-10-20T14:56:17.535Z,4.70
2017-10-20T14:58:48.286Z,4.70
2017-10-20T15:01:18.554Z,4.70
2017-10-20T15:03:51.236Z,6.40
2017-10-20T15:06:24.321Z,3.70
2017-10-20T15:08:54.387Z,6.73
2017-10-20T15:11:25.111Z,4.47
2017-10-20T15:13:55.149Z,7.77
2017-10-20T15:16:26.699Z,7.80
2017-10-20T15:18:56.793Z,7.90
2017-10-20T15:21:28.648Z,4.60
2017-10-20T15:24:02.210Z,7.80
2017-10-20T15:26:32.893Z,4.60
2017-10-20T15:29:04.922Z,4.50
2017-10-20T15:31:35.235Z,4.80
2017-10-20T15:34:06.255Z,6.73
2017-10-20T15:36:36.885Z,9.30
2017-10-20T15:39:08.748Z,6.27
2017-10-20T15:41:39.709Z,6.20
2017-10-20T15:44:09.707Z,6.57
2017-10-20T15:46:40.165Z,13.13
2017-10-20T15:49:12.273Z,11.20
2017-10-20T15:51:45.425Z,5.70
2017-10-20T15:54:18.865Z,8.57
2017-10-20T15:56:48.951Z,6.00
2017-10-20T15:59:19.890Z,8.00
2017-10-20T16:01:50.785Z,7.73
2017-10-20T16:04:22.925Z,9.43
2017-10-20T16:06:54.897Z,17.40
2017-10-20T16:09:27.138Z,13.37
2017-10-20T16:11:59.442Z,9.70
2017-10-20T16:14:30.349Z,10.83
2017-10-20T16:17:04.805Z,12.93
2017-10-20T16:19:36.333Z,10.50
2017-10-20T16:22:07.833Z,12.03
2017-10-20T16:24:41.926Z,11.97
2017-10-20T16:27:14.910Z,6.37
2017-10-20T16:29:51.069Z,10.17
2017-10-20T16:32:23.833Z,12.37
2017-10-20T16:34:54.652Z,13.67
2017-10-20T16:37:25.305Z,13.30
2017-10-20T16:39:56.209Z,7.23
2017-10-20T16:42:26.917Z,8.40
2017-10-20T16:45:55.906Z,10.63
2017-10-20T16:48:28.212Z,10.50
2017-10-20T16:51:00.838Z,14.57
2017-10-20T16:53:31.675Z,10.20
2017-10-20T16:56:05.575Z,11.80
2017-10-20T16:58:36.629Z,10.30
2017-10-20T17:01:09.823Z,11.67
2017-10-20T17:03:42.685Z,10.00
2017-10-20T17:06:52.748Z,10.00
2017-10-20T17:12:47.561Z,7.57
2017-10-20T17:15:46.543Z,6.10
2017-10-20T17:19:15.259Z,9.20
2017-10-20T17:22:12.679Z,4.67
2017-10-20T17:25:38.830Z,9.33
2017-10-20T17:28:13.429Z,8.83
2017-10-20T17:30:45.254Z,8.87
2017-10-20T17:33:17.646Z,8.50
2017-10-20T17:36:06.712Z,8.00
2017-10-20T17:39:08.055Z,12.10
2017-10-20T17:41:39.857Z,7.50
2017-10-20T17:44:41.468Z,10.50
2017-10-20T17:47:13.666Z,9.20
2017-10-20T17:49:44.849Z,8.07
2017-10-20T17:52:29.021Z,11.30
2017-10-20T17:54:59.006Z,14.77
2017-10-20T17:57:30.353Z,10.63
2017-10-20T18:00:00.820Z,13.10
2017-10-20T18:02:31.585Z,9.73
2017-10-20T18:05:03.267Z,12.93
2017-10-20T18:07:34.996Z,12.07
2017-10-20T18:10:06.889Z,9.03
2017-10-20T18:12:36.929Z,14.23
2017-10-20T18:15:07.751Z,10.30
2017-10-20T18:17:39.015Z,13.70
2017-10-20T18:20:11.282Z,10.63
2017-10-20T18:22:45.125Z,10.83
2017-10-20T18:25:18.415Z,8.50
2017-10-20T18:27:54.091Z,11.33
2017-10-20T18:30:25.858Z,11.50
2017-10-20T18:32:57.434Z,15.47
2017-10-20T18:35:30.166Z,17.10
2017-10-20T18:38:01.922Z,9.93
2017-10-20T18:40:33.445Z,13.83
2017-10-20T18:43:07.867Z,10.80
2017-10-20T18:45:40.070Z,10.97
2017-10-20T18:48:11.796Z,10.90
2017-10-20T18:50:43.523Z,14.43
2017-10-20T18:53:13.809Z,13.47
2017-10-20T18:55:46.986Z,12.67
2017-10-20T18:58:20.568Z,12.70
2017-10-20T19:00:52.766Z,16.03
2017-10-20T19:03:23.842Z,8.10
2017-10-20T19:05:55.712Z,11.30
2017-10-20T19:08:26.466Z,8.43
2017-10-20T19:11:03.120Z,12.67
2017-10-20T19:13:36.345Z,14.53
2017-10-20T19:16:11.473Z,15.23
2017-10-20T19:18:57.371Z,9.10
2017-10-20T19:21:30.155Z,13.63
2017-10-20T19:24:06.053Z,9.90
2017-10-20T19:26:44.537Z,8.10
2017-10-20T19:29:14.992Z,15.77
2017-10-20T19:31:47.748Z,14.97
2017-10-20T19:34:39.302Z,11.20
2017-10-20T19:37:13.772Z,11.07
2017-10-20T19:40:28.240Z,12.60
2017-10-20T19:43:06.158Z,12.93
2017-10-20T19:45:37.292Z,12.37
2017-10-20T19:48:08.571Z,13.10
2017-10-20T19:50:40.276Z,11.30
2017-10-20T19:53:10.756Z,15.30
2017-10-20T19:55:46.552Z,20.27
2017-10-20T19:58:17.466Z,17.27
2017-10-20T20:00:48.707Z,11.03
2017-10-20T20:03:21.512Z,11.70
2017-10-20T20:06:01.197Z,15.47
2017-10-20T20:09:06.578Z,23.07
2017-10-20T20:11:43.258Z,24.87
2017-10-20T20:14:13.752Z,8.37
2017-10-20T20:16:44.064Z,13.43
2017-10-20T20:19:16.729Z,13.33
2017-10-20T20:21:49.225Z,13.67
2017-10-20T20:24:21.229Z,6.57
2017-10-20T20:26:53.536Z,13.57
2017-10-20T20:29:31.964Z,8.97
2017-10-20T20:32:25.822Z,14.97
2017-10-20T20:34:58.516Z,11.20
2017-10-20T20:38:21.355Z,15.70
2017-10-20T20:40:55.813Z,9.33
2017-10-20T20:43:27.801Z,18.63
2017-10-20T20:46:18.283Z,8.50
2017-10-20T20:48:49.492Z,12.77
2017-10-20T20:54:43.345Z,13.67
2017-10-20T20:57:55.051Z,14.03
2017-10-20T21:00:41.133Z,16.83
2017-10-20T21:03:24.524Z,9.20
2017-10-20T21:06:02.832Z,19.90
2017-10-20T21:08:33.870Z,20.20
2017-10-20T21:11:04.891Z,10.37
2017-10-20T21:14:33.739Z,13.37
2017-10-20T21:17:34.456Z,9.30
2017-10-20T21:20:05.685Z,14.13
2017-10-20T21:25:25.207Z,10.03
2017-10-20T21:27:56.121Z,13.53
2017-10-20T21:33:16.243Z,9.77
2017-10-20T21:35:46.239Z,13.47
2017-10-20T21:38:18.117Z,14.53
2017-10-20T21:41:27.818Z,14.73
2017-10-20T21:44:11.581Z,10.97
2017-10-20T21:47:07.412Z,12.93
2017-10-20T21:49:37.674Z,12.17
2017-10-20T21:52:36.314Z,22.00
2017-10-20T21:55:07.780Z,20.70
2017-10-20T21:57:39.430Z,15.37
2017-10-20T22:00:11.234Z,21.30
2017-10-20T22:02:42.356Z,19.23
2017-10-20T22:05:12.717Z,18.40
2017-10-20T22:07:43.902Z,16.90
2017-10-20T22:17:04.240Z,13.00
2017-10-20T22:19:35.788Z,11.53
2017-10-20T22:22:06.674Z,16.03
2017-10-20T22:24:38.336Z,20.87
2017-10-20T22:27:08.698Z,13.00
2017-10-20T22:29:39.122Z,16.63
2017-10-20T22:32:11.519Z,15.67
2017-10-20T22:34:41.731Z,12.67
2017-10-20T22:37:11.843Z,14.90
2017-10-20T22:39:43.072Z,6.23
2017-10-20T22:42:13.640Z,22.53
2017-10-20T22:44:43.591Z,13.90
2017-10-20T22:47:14.540Z,16.23
2017-10-20T22:49:44.598Z,18.63
2017-10-20T22:52:16.384Z,11.07
2017-10-20T22:54:48.346Z,11.57
2017-10-20T22:57:20.735Z,12.93
2017-10-20T22:59:53.047Z,16.20
2017-10-20T23:02:25.716Z,16.00
2017-10-20T23:04:56.044Z,14.13
2017-10-20T23:07:26.278Z,12.03
2017-10-20T23:09:57.433Z,12.17
2017-10-20T23:12:27.386Z,17.07
2017-10-20T23:14:59.404Z,15.50
2017-10-20T23:17:30.088Z,10.43
2017-10-20T23:20:01.769Z,10.93
2017-10-20T23:22:31.959Z,21.67
2017-10-20T23:25:06.186Z,16.60
2017-10-20T23:27:38.313Z,13.20
2017-10-20T23:30:08.778Z,11.17
2017-10-20T23:32:38.791Z,18.67
2017-10-20T23:35:12.184Z,20.53
2017-10-20T23:37:43.189Z,16.03
2017-10-20T23:40:15.953Z,7.97
2017-10-20T23:42:47.189Z,8.70
2017-10-20T23:45:18.573Z,18.00
2017-10-20T23:47:50.134Z,16.13
2017-10-20T23:50:23.982Z,27.03
2017-10-20T23:52:54.421Z,14.30
2017-10-20T23:55:25.098Z,13.37
2017-10-20T23:57:56.134Z,8.13
